Time;durP1;ratioP1;P1;durP2;ratioP2;P2;SDS_P1;SDS_P2;PMS_P1;PMS_P2;Temp;Humidity;BMP_temperature;BMP_pressure;BME280_temperature;BME280_humidity;BME280_pressure;Samples;Min_cycle;Max_cycle;Signal;HPM_P1;HPM_P2
2022/12/24 00:00:28;;;;;;;7.50;4.40;;;;;;;4.88;100.00;95686.80;105599;1291;22472;-81
2022/12/24 00:03:19;;;;;;;6.90;4.40;;;;;;;4.87;100.00;95690.63;105583;1302;22502;-81
2022/12/24 00:05:51;;;;;;;8.00;4.40;;;;;;;4.89;100.00;95692.83;105638;1303;22580;-81
2022/12/24 00:08:22;;;;;;;7.10;4.40;;;;;;;4.91;100.00;95694.77;105428;1303;46543;-81
2022/12/24 00:10:57;;;;;;;8.00;4.20;;;;;;;4.91;100.00;95695.77;105468;1288;22458;-81
2022/12/24 00:13:28;;;;;;;7.90;4.30;;;;;;;4.93;100.00;95697.41;105556;1294;22549;-81
2022/12/24 00:15:59;;;;;;;6.40;3.50;;;;;;;4.93;100.00;95699.52;105471;1306;22491;-81
2022/12/24 00:18:35;;;;;;;8.10;4.70;;;;;;;4.94;100.00;95705.81;105436;1296;25342;-81
2022/12/24 00:21:06;;;;;;;6.70;4.40;;;;;;;4.94;100.00;95701.56;105510;1301;22525;-81
2022/12/24 00:23:37;;;;;;;7.20;4.20;;;;;;;4.94;100.00;95704.19;105458;1305;22468;-81
2022/12/24 00:26:09;;;;;;;7.60;4.30;;;;;;;4.95;100.00;95703.46;105436;1303;51270;-81
2022/12/24 00:28:40;;;;;;;6.90;4.10;;;;;;;4.94;100.00;95699.20;105456;1303;24286;-81
2022/12/24 00:31:14;;;;;;;5.40;3.80;;;;;;;4.94;100.00;95698.73;105544;1303;22481;-81
2022/12/24 00:33:47;;;;;;;7.90;4.60;;;;;;;4.91;100.00;95699.29;105435;1295;22485;-81
2022/12/24 00:36:19;;;;;;;5.90;4.30;;;;;;;4.90;100.00;95696.20;105521;1304;30637;-81
2022/12/24 00:38:50;;;;;;;6.20;4.10;;;;;;;4.90;100.00;95692.73;105643;1294;24279;-80
2022/12/24 00:41:27;;;;;;;7.10;4.50;;;;;;;4.90;100.00;95691.36;105666;1299;22520;-80
2022/12/24 00:44:00;;;;;;;6.60;4.50;;;;;;;4.89;100.00;95693.67;105676;1300;24282;-81
2022/12/24 00:46:33;;;;;;;7.30;4.80;;;;;;;4.87;100.00;95690.42;105444;1303;103142;-81
2022/12/24 00:49:06;;;;;;;8.20;4.70;;;;;;;4.86;100.00;95688.64;105582;1295;22467;-81
2022/12/24 00:51:37;;;;;;;6.60;4.20;;;;;;;4.86;100.00;95682.34;105545;1303;22506;-81
2022/12/24 00:54:11;;;;;;;8.40;4.70;;;;;;;4.84;100.00;95679.66;105557;1303;22458;-81
2022/12/24 00:56:42;;;;;;;7.20;4.70;;;;;;;4.84;100.00;95677.61;105395;1301;43901;-80
2022/12/24 00:59:13;;;;;;;7.60;5.20;;;;;;;4.85;100.00;95673.52;105554;1304;25294;-80
2022/12/24 01:01:44;;;;;;;6.60;4.50;;;;;;;4.87;100.00;95663.33;105484;1295;22936;-80
2022/12/24 01:07:06;;;;;;;6.10;4.20;;;;;;;4.86;100.00;95644.89;105570;1294;22543;-81
2022/12/24 01:09:37;;;;;;;6.80;4.40;;;;;;;4.84;100.00;95640.23;105533;1304;22534;-81
2022/12/24 01:12:10;;;;;;;6.60;4.70;;;;;;;4.83;100.00;95641.80;105641;1295;22514;-81
2022/12/24 01:14:43;;;;;;;8.60;5.00;;;;;;;4.80;100.00;95647.74;105678;1304;24291;-81
2022/12/24 01:17:14;;;;;;;6.90;5.10;;;;;;;4.74;100.00;95633.61;103769;1303;2504554;-80
2022/12/24 01:19:46;;;;;;;7.20;5.00;;;;;;;4.73;100.00;95626.42;105626;1303;22457;-80
2022/12/24 01:22:17;;;;;;;5.80;4.70;;;;;;;4.73;100.00;95616.55;105521;1309;22532;-80
2022/12/24 01:24:51;;;;;;;6.30;4.40;;;;;;;4.71;100.00;95614.61;105491;1301;22509;-80
2022/12/24 01:27:23;;;;;;;6.10;4.10;;;;;;;4.67;100.00;95614.52;105476;1299;25373;-81
2022/12/24 01:29:55;;;;;;;6.90;4.50;;;;;;;4.65;100.00;95611.73;105508;1304;22512;-80
2022/12/24 01:32:26;;;;;;;7.30;5.00;;;;;;;4.63;100.00;95611.67;105501;1304;22685;-81
2022/12/24 01:34:57;;;;;;;6.90;5.10;;;;;;;4.61;100.00;95608.16;105481;1285;22491;-81
2022/12/24 01:37:28;;;;;;;7.00;4.90;;;;;;;4.63;100.00;95607.78;105534;1300;23295;-80
2022/12/24 01:45:46;;;;;;;7.30;4.80;;;;;;;4.70;100.00;95610.58;104035;1303;2070862;-81
2022/12/24 01:48:23;;;;;;;5.70;3.90;;;;;;;4.72;100.00;95606.73;105440;1304;60216;-80
2022/12/24 01:51:00;;;;;;;7.40;4.80;;;;;;;4.74;100.00;95601.69;105485;1300;22575;-80
2022/12/24 01:53:34;;;;;;;5.70;4.40;;;;;;;4.77;100.00;95601.37;105484;1304;25187;-80
2022/12/24 01:56:07;;;;;;;6.30;4.70;;;;;;;4.80;100.00;95607.42;105494;1287;25429;-80
2022/12/24 01:58:40;;;;;;;6.50;4.90;;;;;;;4.82;100.00;95609.62;105468;1284;22492;-80
2022/12/24 02:01:11;;;;;;;7.00;5.10;;;;;;;4.84;100.00;95611.82;105478;1287;25152;-80
2022/12/24 02:03:42;;;;;;;6.20;4.70;;;;;;;4.87;100.00;95613.17;105493;1293;22489;-80
2022/12/24 02:06:16;;;;;;;6.30;4.50;;;;;;;4.89;100.00;95613.11;105448;1304;22461;-81
2022/12/24 02:08:47;;;;;;;6.20;4.80;;;;;;;4.87;100.00;95617.11;105528;1304;23281;-80
2022/12/24 02:11:21;;;;;;;6.40;4.70;;;;;;;4.87;100.00;95619.73;105506;1303;22517;-81
2022/12/24 02:13:56;;;;;;;7.40;5.30;;;;;;;4.87;100.00;95614.85;105511;1304;24271;-80
2022/12/24 02:16:40;;;;;;;8.80;5.50;;;;;;;4.87;100.00;95611.33;105424;1294;22518;-81
2022/12/24 02:19:29;;;;;;;7.80;5.30;;;;;;;4.85;100.00;95609.13;105482;1297;22486;-80
2022/12/24 02:22:07;;;;;;;5.70;4.20;;;;;;;4.79;100.00;95607.20;105475;1305;22474;-81
2022/12/24 02:25:12;;;;;;;7.90;5.00;;;;;;;4.72;100.00;95597.55;105505;1298;22476;-80
2022/12/24 02:27:57;;;;;;;5.40;4.00;;;;;;;4.70;100.00;95590.67;105437;1305;22461;-80
2022/12/24 02:30:36;;;;;;;5.60;3.30;;;;;;;4.68;100.00;95588.69;105462;1280;22503;-80
2022/12/24 02:33:23;;;;;;;4.90;3.40;;;;;;;4.69;100.00;95575.56;105516;1294;22469;-80
2022/12/24 02:35:58;;;;;;;6.50;4.20;;;;;;;4.70;100.00;95570.46;105469;1296;22485;-80
2022/12/24 02:38:32;;;;;;;6.50;4.00;;;;;;;4.68;100.00;95569.05;105485;1303;22486;-80
2022/12/24 02:41:07;;;;;;;4.90;3.80;;;;;;;4.67;100.00;95561.87;105460;1304;22470;-80
2022/12/24 02:43:42;;;;;;;6.80;4.60;;;;;;;4.64;100.00;95554.52;105460;1288;22485;-80
2022/12/24 02:46:17;;;;;;;6.10;4.60;;;;;;;4.62;100.00;95558.96;105474;1294;22814;-80
2022/12/24 02:48:51;;;;;;;4.90;3.80;;;;;;;4.62;100.00;95564.16;105529;1303;22476;-81
2022/12/24 02:51:25;;;;;;;5.50;3.50;;;;;;;4.61;100.00;95559.23;105620;1285;22460;-80
2022/12/24 02:53:58;;;;;;;5.10;3.80;;;;;;;4.60;100.00;95556.51;105566;1295;23457;-80
2022/12/24 02:56:54;;;;;;;5.10;3.90;;;;;;;4.60;100.00;95560.92;105669;1303;22473;-80
2022/12/24 03:00:01;;;;;;;5.60;4.10;;;;;;;4.58;100.00;95561.56;105585;1294;22508;-80
2022/12/24 03:02:47;;;;;;;4.40;3.00;;;;;;;4.58;100.00;95564.39;105634;1288;23165;-81
2022/12/24 03:05:29;;;;;;;3.10;2.50;;;;;;;4.61;100.00;95553.20;105697;1301;22588;-81
2022/12/24 03:08:10;;;;;;;2.50;2.00;;;;;;;4.65;100.00;95551.05;105561;1294;64742;-81
2022/12/24 03:10:47;;;;;;;2.30;1.90;;;;;;;4.69;100.00;95549.36;105575;1303;22488;-81
2022/12/24 03:13:20;;;;;;;2.30;1.60;;;;;;;4.75;100.00;95548.17;105748;1304;22675;-82
2022/12/24 03:15:52;;;;;;;2.70;2.00;;;;;;;4.94;100.00;95550.75;105507;1303;22466;-81
2022/12/24 03:18:26;;;;;;;3.00;2.10;;;;;;;5.11;100.00;95556.73;105469;1303;24260;-81
2022/12/24 03:21:05;;;;;;;3.50;2.40;;;;;;;5.19;100.00;95551.70;105485;1303;24254;-82
2022/12/24 03:23:36;;;;;;;3.00;2.00;;;;;;;5.27;100.00;95554.04;105508;1292;23273;-81
2022/12/24 03:26:11;;;;;;;3.40;2.60;;;;;;;5.33;100.00;95555.42;105463;1303;66883;-81
2022/12/24 03:28:46;;;;;;;3.10;2.20;;;;;;;5.40;100.00;95555.30;105510;1294;64961;-81
2022/12/24 03:31:18;;;;;;;3.20;2.40;;;;;;;5.41;100.00;95555.29;105536;1303;22516;-82
2022/12/24 03:33:50;;;;;;;2.80;2.10;;;;;;;5.46;100.00;95560.20;105543;1289;25369;-81
2022/12/24 03:36:24;;;;;;;3.00;2.50;;;;;;;5.45;100.00;95557.98;105425;1300;69122;-81
2022/12/24 03:38:55;;;;;;;3.00;2.20;;;;;;;5.45;100.00;95561.36;105493;1281;22466;-81
2022/12/24 03:41:26;;;;;;;3.10;2.30;;;;;;;5.45;100.00;95559.98;105466;1289;25298;-81
2022/12/24 03:43:57;;;;;;;3.30;2.20;;;;;;;5.46;100.00;95561.30;105485;1288;22547;-81
2022/12/24 03:46:28;;;;;;;2.80;2.00;;;;;;;5.47;100.00;95557.34;105460;1289;34291;-81
2022/12/24 03:49:02;;;;;;;2.60;2.00;;;;;;;5.49;100.00;95556.86;105522;1300;26678;-81
2022/12/24 03:51:33;;;;;;;2.90;2.10;;;;;;;5.54;100.00;95557.16;105514;1300;22485;-81
2022/12/24 03:54:04;;;;;;;3.30;2.20;;;;;;;5.57;100.00;95551.36;105631;1303;22499;-81
2022/12/24 03:56:35;;;;;;;3.30;2.40;;;;;;;5.56;100.00;95556.10;105551;1288;25062;-81
2022/12/24 03:59:06;;;;;;;2.10;1.60;;;;;;;5.57;100.00;95557.62;105473;1303;22444;-81
2022/12/24 04:01:40;;;;;;;2.60;1.80;;;;;;;5.61;100.00;95557.23;105511;1303;25345;-81
2022/12/24 04:04:11;;;;;;;2.60;1.80;;;;;;;5.68;100.00;95557.45;105501;1295;25206;-81
2022/12/24 04:06:41;;;;;;;3.60;2.10;;;;;;;5.70;100.00;95558.80;105480;1285;24798;-81
2022/12/24 04:09:12;;;;;;;1.90;1.40;;;;;;;5.72;100.00;95562.79;105561;1289;25383;-82
2022/12/24 04:11:44;;;;;;;2.80;1.90;;;;;;;5.79;100.00;95569.64;105667;1288;22460;-81
2022/12/24 04:14:15;;;;;;;2.50;1.80;;;;;;;5.80;100.00;95568.16;105727;1303;22523;-82
2022/12/24 04:16:47;;;;;;;2.60;2.10;;;;;;;5.78;100.00;95571.96;105613;1300;55876;-81
2022/12/24 04:19:18;;;;;;;3.20;1.80;;;;;;;5.75;100.00;95572.13;105567;1295;22488;-82
2022/12/24 04:21:50;;;;;;;2.70;1.20;;;;;;;5.78;100.00;95569.64;105507;1278;22564;-82
2022/12/24 04:24:21;;;;;;;2.50;2.10;;;;;;;5.87;100.00;95566.64;105497;1286;25477;-82
2022/12/24 04:26:52;;;;;;;1.90;1.30;;;;;;;5.90;100.00;95563.89;105452;1295;25900;-81
2022/12/24 04:29:23;;;;;;;2.00;1.60;;;;;;;5.88;100.00;95570.36;105566;1288;22501;-82
2022/12/24 04:31:54;;;;;;;2.00;1.60;;;;;;;5.88;100.00;95566.35;105579;1294;22505;-81
2022/12/24 04:34:25;;;;;;;2.20;1.70;;;;;;;5.89;100.00;95570.45;105558;1288;22484;-81
2022/12/24 04:36:56;;;;;;;2.00;1.70;;;;;;;5.84;100.00;95565.77;105465;1303;25153;-82
2022/12/24 04:39:27;;;;;;;3.30;2.10;;;;;;;5.78;100.00;95561.06;105607;1294;22512;-79
2022/12/24 04:41:58;;;;;;;2.80;2.10;;;;;;;5.72;100.00;95562.31;105597;1303;24293;-80
2022/12/24 04:44:31;;;;;;;2.00;1.70;;;;;;;5.67;100.00;95559.56;105571;1281;22475;-81
2022/12/24 04:47:02;;;;;;;1.90;1.80;;;;;;;5.61;100.00;95564.15;105449;1303;40572;-81
2022/12/24 04:49:33;;;;;;;2.30;1.70;;;;;;;5.56;100.00;95565.14;105479;1303;23799;-81
2022/12/24 04:52:04;;;;;;;2.60;1.60;;;;;;;5.54;100.00;95571.36;104583;1289;1306549;-81
2022/12/24 04:54:35;;;;;;;2.60;2.10;;;;;;;5.53;100.00;95571.94;105509;1303;22485;-80
2022/12/24 04:57:07;;;;;;;3.20;2.00;;;;;;;5.55;100.00;95578.45;101813;1289;5086144;-80
2022/12/24 04:59:41;;;;;;;2.90;1.90;;;;;;;5.57;100.00;95576.27;105800;1295;22474;-80
2022/12/24 05:02:14;;;;;;;2.20;1.80;;;;;;;5.62;100.00;95580.98;105751;1289;22497;-80
2022/12/24 05:04:45;;;;;;;1.30;1.00;;;;;;;5.65;100.00;95579.51;105713;1289;22459;-81
2022/12/24 05:07:16;;;;;;;1.50;1.20;;;;;;;5.75;100.00;95574.82;105507;1284;181351;-81
2022/12/24 05:09:47;;;;;;;0.90;0.80;;;;;;;5.85;100.00;95585.31;105772;1282;22548;-80
2022/12/24 05:12:21;;;;;;;1.40;1.10;;;;;;;6.03;100.00;95579.23;105719;1284;22483;-81
2022/12/24 05:14:55;;;;;;;1.70;1.00;;;;;;;6.18;100.00;95585.64;105694;1286;22524;-80
2022/12/24 05:17:31;;;;;;;1.60;1.20;;;;;;;6.20;100.00;95593.48;105649;1278;22607;-81
2022/12/24 05:20:05;;;;;;;1.50;1.00;;;;;;;6.21;100.00;95589.27;105759;1303;22955;-81
2022/12/24 05:28:17;;;;;;;1.70;1.30;;;;;;;6.30;100.00;95601.98;105675;1287;22484;-81
2022/12/24 05:30:48;;;;;;;7.20;2.20;;;;;;;6.33;100.00;95607.69;105799;1281;22570;-81
2022/12/24 05:33:19;;;;;;;2.90;1.80;;;;;;;6.35;100.00;95607.85;105708;1292;22491;-81
2022/12/24 05:35:53;;;;;;;4.00;1.90;;;;;;;6.36;100.00;95605.88;105646;1281;22463;-81
2022/12/24 05:38:24;;;;;;;10.00;3.50;;;;;;;6.39;100.00;95608.86;105651;1289;64616;-81
2022/12/24 05:40:55;;;;;;;2.10;1.30;;;;;;;6.43;100.00;95611.88;105659;1289;22568;-81
2022/12/24 05:43:27;;;;;;;1.70;1.10;;;;;;;6.44;100.00;95610.97;105696;1287;22559;-81
2022/12/24 05:46:02;;;;;;;2.80;1.50;;;;;;;6.45;100.00;95617.34;105770;1288;63238;-81
2022/12/24 05:48:34;;;;;;;1.80;1.30;;;;;;;6.43;100.00;95623.14;105715;1284;74533;-81
2022/12/24 05:51:14;;;;;;;2.90;1.60;;;;;;;6.42;100.00;95625.89;105760;1290;22610;-81
2022/12/24 05:53:48;;;;;;;1.40;1.30;;;;;;;6.44;100.00;95627.02;105707;1297;22456;-80
2022/12/24 05:56:25;;;;;;;2.00;1.30;;;;;;;6.44;100.00;95631.50;105617;1294;75176;-81
2022/12/24 05:58:57;;;;;;;1.60;1.30;;;;;;;6.42;100.00;95625.52;105715;1288;23809;-80
2022/12/24 06:01:31;;;;;;;1.80;1.50;;;;;;;6.36;100.00;95630.38;105800;1289;22598;-80
2022/12/24 06:04:10;;;;;;;2.10;1.60;;;;;;;6.31;100.00;95633.50;105631;1289;24251;-80
2022/12/24 06:06:43;;;;;;;2.50;1.90;;;;;;;6.28;100.00;95639.21;105561;1289;124060;-81
2022/12/24 06:09:16;;;;;;;1.90;1.20;;;;;;;6.26;100.00;95638.50;105608;1287;22628;-81
2022/12/24 06:11:51;;;;;;;1.60;1.40;;;;;;;6.24;100.00;95640.61;105810;1284;22535;-80
2022/12/24 06:14:25;;;;;;;3.70;1.30;;;;;;;6.25;100.00;95641.23;105616;1303;22491;-81
2022/12/24 06:16:56;;;;;;;2.00;1.40;;;;;;;6.25;100.00;95647.17;105562;1288;55332;-81
2022/12/24 06:19:27;;;;;;;1.40;1.30;;;;;;;6.26;100.00;95650.02;105564;1300;22678;-80
2022/12/24 06:21:59;;;;;;;1.60;1.40;;;;;;;6.28;100.00;95649.31;105549;1303;24254;-80
2022/12/24 06:24:30;;;;;;;1.60;1.40;;;;;;;6.32;100.00;95650.38;105591;1281;25253;-80
2022/12/24 06:27:01;;;;;;;2.30;1.20;;;;;;;6.34;100.00;95652.34;105453;1296;58733;-80
2022/12/24 06:29:33;;;;;;;1.30;1.20;;;;;;;6.38;100.00;95650.30;105562;1303;24993;-79
2022/12/24 06:32:04;;;;;;;2.00;1.30;;;;;;;6.44;100.00;95657.61;105577;1303;22561;-80
2022/12/24 06:34:35;;;;;;;1.30;1.20;;;;;;;6.52;100.00;95656.36;105606;1302;23050;-80
2022/12/24 06:37:06;;;;;;;2.40;1.70;;;;;;;6.61;100.00;95655.45;105503;1302;38083;-81
2022/12/24 06:39:38;;;;;;;2.70;1.70;;;;;;;6.70;100.00;95655.79;105533;1303;22522;-81
2022/12/24 06:42:09;;;;;;;1.70;1.50;;;;;;;6.75;100.00;95658.59;105528;1303;22489;-80
2022/12/24 06:44:40;;;;;;;3.20;1.50;;;;;;;6.75;100.00;95657.69;105623;1303;22616;-80
2022/12/24 06:47:11;;;;;;;2.60;1.40;;;;;;;6.75;100.00;95664.44;105056;1296;90731;-80
2022/12/24 06:49:43;;;;;;;3.30;1.70;;;;;;;6.70;100.00;95670.11;105145;1303;22581;-79
2022/12/24 06:52:19;;;;;;;2.40;1.80;;;;;;;6.67;100.00;95671.15;105203;1302;22454;-81
2022/12/24 06:54:50;;;;;;;2.10;1.60;;;;;;;6.62;100.00;95678.09;105595;1295;22525;-80
2022/12/24 06:57:21;;;;;;;2.00;1.40;;;;;;;6.61;100.00;95684.98;105615;1303;23988;-80
2022/12/24 06:59:52;;;;;;;2.40;1.60;;;;;;;6.61;100.00;95681.83;105522;1295;25334;-80
2022/12/24 07:02:24;;;;;;;3.60;2.10;;;;;;;6.63;100.00;95685.94;105668;1303;22600;-79
2022/12/24 07:04:56;;;;;;;2.70;2.00;;;;;;;6.64;100.00;95688.14;105645;1295;22704;-80
2022/12/24 07:07:28;;;;;;;1.90;1.70;;;;;;;6.68;100.00;95697.64;104333;1289;1937302;-80
2022/12/24 07:10:03;;;;;;;3.20;2.00;;;;;;;6.74;100.00;95698.42;105838;1295;22474;-80
2022/12/24 07:12:35;;;;;;;3.10;2.20;;;;;;;6.81;100.00;95703.85;105790;1302;22500;-80
2022/12/24 07:15:10;;;;;;;4.50;1.90;;;;;;;6.83;100.00;95703.98;105560;1303;53807;-80
2022/12/24 07:17:42;;;;;;;2.40;2.10;;;;;;;6.85;100.00;95706.55;105687;1287;78670;-81
2022/12/24 07:20:15;;;;;;;2.20;1.80;;;;;;;6.90;100.00;95705.15;105752;1302;22491;-80
2022/12/24 07:22:48;;;;;;;2.60;1.90;;;;;;;6.95;100.00;95707.70;105728;1295;22515;-80
2022/12/24 07:25:20;;;;;;;4.10;2.40;;;;;;;6.97;100.00;95707.50;105742;1303;53049;-80
2022/12/24 07:27:58;;;;;;;2.70;1.90;;;;;;;6.98;100.00;95709.94;105448;1302;47133;-80
2022/12/24 07:30:30;;;;;;;3.60;2.60;;;;;;;7.03;100.00;95708.52;105815;1300;22493;-80
2022/12/24 07:33:04;;;;;;;3.40;2.30;;;;;;;7.05;100.00;95708.23;105764;1281;22475;-80
2022/12/24 07:35:35;;;;;;;3.20;2.20;;;;;;;7.06;100.00;95716.08;105733;1303;22490;-80
2022/12/24 07:38:07;;;;;;;4.10;2.90;;;;;;;7.03;100.00;95718.11;105713;1296;25394;-81
2022/12/24 07:40:42;;;;;;;4.00;2.80;;;;;;;6.96;100.00;95717.95;105733;1294;22503;-80
2022/12/24 07:43:14;;;;;;;4.00;2.70;;;;;;;6.91;100.00;95724.64;105758;1302;22947;-81
2022/12/24 07:45:49;;;;;;;4.10;2.30;;;;;;;6.90;100.00;95728.45;105685;1295;40297;-81
2022/12/24 07:48:23;;;;;;;3.40;2.20;;;;;;;6.94;100.00;95724.09;105653;1288;101300;-80
2022/12/24 07:51:03;;;;;;;3.80;2.20;;;;;;;7.00;100.00;95733.19;105805;1295;22518;-80
2022/12/24 07:53:46;;;;;;;4.20;2.20;;;;;;;7.04;100.00;95729.33;105764;1296;22477;-81
2022/12/24 07:56:20;;;;;;;2.40;1.80;;;;;;;7.06;100.00;95734.33;105668;1302;108565;-81
2022/12/24 07:58:55;;;;;;;2.80;2.10;;;;;;;7.09;100.00;95735.81;105730;1303;22503;-81
2022/12/24 08:01:27;;;;;;;4.10;2.70;;;;;;;7.12;100.00;95738.36;105773;1302;22707;-81
2022/12/24 08:03:59;;;;;;;3.70;2.40;;;;;;;7.18;100.00;95741.90;105800;1289;22460;-83
2022/12/24 08:06:30;;;;;;;2.40;1.80;;;;;;;7.30;100.00;95739.20;105666;1288;69526;-82
2022/12/24 08:09:01;;;;;;;2.70;2.00;;;;;;;7.38;100.00;95741.45;105620;1288;22553;-81
2022/12/24 08:11:33;;;;;;;4.00;1.50;;;;;;;7.41;100.00;95748.90;105697;1279;24154;-81
2022/12/24 08:14:06;;;;;;;3.90;2.10;;;;;;;7.43;100.00;95752.36;105769;1281;22468;-82
2022/12/24 08:16:38;;;;;;;2.60;2.10;;;;;;;7.47;100.00;95755.04;105585;1303;22469;-82
2022/12/24 08:19:12;;;;;;;3.40;2.60;;;;;;;7.49;100.00;95753.65;105567;1303;22611;-82
2022/12/24 08:21:44;;;;;;;4.60;3.10;;;;;;;7.50;100.00;95755.58;105597;1289;22478;-83
2022/12/24 08:24:15;;;;;;;4.20;2.90;;;;;;;7.51;100.00;95757.73;105556;1295;22946;-82
2022/12/24 08:26:47;;;;;;;4.20;2.90;;;;;;;7.51;100.00;95761.21;105462;1282;117348;-83
2022/12/24 08:29:19;;;;;;;5.10;2.70;;;;;;;7.53;100.00;95764.51;105638;1279;22467;-83
2022/12/24 08:31:51;;;;;;;3.10;2.10;;;;;;;7.57;100.00;95763.89;105504;1281;24206;-83
2022/12/24 08:34:23;;;;;;;3.40;2.30;;;;;;;7.61;100.00;95773.04;105506;1297;22749;-84
2022/12/24 08:36:54;;;;;;;3.50;2.80;;;;;;;7.69;100.00;95775.48;105444;1285;22470;-82
2022/12/24 08:39:28;;;;;;;5.80;3.00;;;;;;;7.72;100.00;95777.65;105518;1302;22523;-83
2022/12/24 08:41:59;;;;;;;4.00;2.40;;;;;;;7.71;100.00;95768.38;105502;1294;22500;-84
2022/12/24 08:44:31;;;;;;;3.00;2.10;;;;;;;7.73;100.00;95784.30;105488;1303;22574;-83
2022/12/24 08:47:03;;;;;;;2.90;2.10;;;;;;;7.77;100.00;95788.92;105394;1284;98369;-84
2022/12/24 08:49:34;;;;;;;4.80;3.40;;;;;;;7.75;100.00;95786.19;105468;1282;22477;-83
2022/12/24 08:52:06;;;;;;;4.00;2.70;;;;;;;7.72;100.00;95792.85;105499;1288;24254;-83
2022/12/24 08:54:38;;;;;;;5.10;3.30;;;;;;;7.69;100.00;95792.89;105480;1295;22524;-83
2022/12/24 08:57:13;;;;;;;6.40;3.50;;;;;;;7.67;100.00;95795.86;105472;1303;22468;-83
2022/12/24 08:59:45;;;;;;;3.00;2.10;;;;;;;7.71;100.00;95791.07;105729;1289;22473;-83
2022/12/24 09:02:19;;;;;;;4.30;2.70;;;;;;;7.77;100.00;95793.83;105750;1295;23766;-83
2022/12/24 09:04:51;;;;;;;3.10;2.50;;;;;;;7.79;100.00;95797.17;105782;1302;22528;-82
2022/12/24 09:07:26;;;;;;;2.90;2.10;;;;;;;7.78;100.00;95805.86;105599;1303;100456;-81
2022/12/24 09:09:57;;;;;;;3.60;2.30;;;;;;;7.77;100.00;95804.38;105774;1295;22460;-80
2022/12/24 09:12:29;;;;;;;6.00;3.40;;;;;;;7.79;100.00;95807.58;105786;1302;22488;-81
2022/12/24 09:15:06;;;;;;;6.30;3.80;;;;;;;7.79;100.00;95809.42;105750;1298;22504;-81
2022/12/24 09:17:42;;;;;;;6.30;3.90;;;;;;;7.78;100.00;95799.52;105716;1297;22469;-81
2022/12/24 09:20:17;;;;;;;5.10;3.00;;;;;;;7.76;100.00;95808.19;105782;1303;22640;-81
2022/12/24 09:22:50;;;;;;;5.50;3.60;;;;;;;7.78;100.00;95812.07;105752;1281;22465;-80
2022/12/24 09:25:23;;;;;;;6.80;3.40;;;;;;;7.82;100.00;95809.23;105721;1303;22466;-81
2022/12/24 09:27:54;;;;;;;7.90;3.70;;;;;;;7.85;100.00;95810.83;105676;1303;89061;-83
2022/12/24 09:30:30;;;;;;;5.20;3.50;;;;;;;7.88;100.00;95817.83;105550;1281;22464;-82
2022/12/24 09:33:02;;;;;;;5.20;3.10;;;;;;;7.99;100.00;95819.98;105699;1295;24244;-82
2022/12/24 09:35:39;;;;;;;5.00;3.20;;;;;;;8.11;99.98;95819.67;105719;1284;24785;-81
2022/12/24 09:38:11;;;;;;;4.60;3.00;;;;;;;8.16;99.50;95818.77;105754;1301;27315;-84
2022/12/24 09:40:49;;;;;;;5.40;2.70;;;;;;;8.15;99.21;95814.98;105704;1295;22475;-83
2022/12/24 09:43:23;;;;;;;4.20;3.00;;;;;;;8.14;98.84;95817.52;105835;1295;22511;-84
2022/12/24 09:46:09;;;;;;;7.60;2.80;;;;;;;8.14;98.51;95816.90;105725;1279;94966;-84
2022/12/24 09:48:50;;;;;;;6.10;2.00;;;;;;;8.08;98.25;95825.48;105872;1301;54127;-84
2022/12/24 09:51:31;;;;;;;5.60;2.50;;;;;;;8.09;98.21;95825.30;105803;1303;22490;-86
2022/12/24 09:54:09;;;;;;;4.70;2.40;;;;;;;8.14;98.27;95830.31;106897;1296;24263;-85
2022/12/24 09:56:46;;;;;;;5.20;2.40;;;;;;;8.19;98.19;95839.83;105692;1275;77987;-85
2022/12/24 09:59:25;;;;;;;4.40;3.00;;;;;;;8.24;97.92;95836.21;105733;1302;22486;-84
2022/12/24 10:01:57;;;;;;;3.50;2.50;;;;;;;8.20;97.80;95844.77;105733;1287;22497;-86
2022/12/24 10:04:35;;;;;;;3.10;1.90;;;;;;;8.15;97.99;95841.11;105694;1281;24254;-85
2022/12/24 10:07:23;;;;;;;4.80;2.30;;;;;;;8.06;97.91;95845.55;105606;1289;71603;-86
2022/12/24 10:10:05;;;;;;;3.70;2.10;;;;;;;8.00;97.91;95835.36;105791;1297;25656;-85
2022/12/24 10:12:42;;;;;;;4.50;2.20;;;;;;;7.97;97.74;95855.36;105781;1289;22492;-85
2022/12/24 10:15:24;;;;;;;2.90;2.20;;;;;;;7.98;97.92;95855.50;105725;1295;82512;-85
2022/12/24 10:18:18;;;;;;;5.00;2.30;;;;;;;8.01;97.76;95862.70;105610;1295;49414;-86
2022/12/24 10:20:59;;;;;;;5.10;2.50;;;;;;;8.04;97.59;95856.78;105508;1298;22468;-87
2022/12/24 10:23:35;;;;;;;;;;;;;;;8.02;97.43;95871.14;105505;1303;22603;-84
2022/12/24 10:26:17;;;;;;;3.00;2.20;;;;;;;8.01;97.58;95876.15;105481;1295;47422;-84
2022/12/24 10:28:54;;;;;;;3.00;1.60;;;;;;;8.00;97.94;95881.51;105463;1285;55485;-81
2022/12/24 10:31:29;;;;;;;3.50;2.00;;;;;;;7.95;98.22;95883.88;105505;1289;22485;-83
2022/12/24 10:34:12;;;;;;;4.10;1.90;;;;;;;7.91;98.53;95882.41;105517;1303;22494;-82
2022/12/24 10:36:43;;;;;;;2.80;1.30;;;;;;;7.86;98.79;95889.39;105451;1289;43147;-83
2022/12/24 10:39:22;;;;;;;2.70;1.60;;;;;;;7.85;98.84;95887.40;105469;1303;22617;-82
2022/12/24 10:41:56;;;;;;;2.90;1.90;;;;;;;7.84;98.80;95891.11;105486;1295;23520;-82
2022/12/24 10:44:37;;;;;;;2.70;1.70;;;;;;;7.81;99.02;95884.33;105538;1295;22464;-83
2022/12/24 10:47:11;;;;;;;3.80;1.80;;;;;;;7.77;99.05;95876.40;105463;1303;61207;-83
2022/12/24 10:49:49;;;;;;;3.90;1.90;;;;;;;7.80;99.06;95881.81;105580;1287;22460;-82
2022/12/24 10:52:25;;;;;;;3.70;1.50;;;;;;;7.82;99.08;95876.46;105487;1302;22591;-81
2022/12/24 10:55:25;;;;;;;3.00;1.70;;;;;;;7.83;98.83;95872.96;105469;1303;22475;-82
2022/12/24 10:58:19;;;;;;;3.00;1.20;;;;;;;7.79;98.62;95887.15;105469;1303;73407;-83
2022/12/24 11:00:55;;;;;;;2.90;1.70;;;;;;;7.81;98.54;95896.94;105686;1303;24400;-85
2022/12/24 11:03:35;;;;;;;5.70;2.00;;;;;;;7.81;98.77;95895.58;105723;1291;22542;-83
2022/12/24 11:06:24;;;;;;;3.40;1.60;;;;;;;7.75;98.79;95896.67;104480;1303;1779085;-83
2022/12/24 11:09:21;;;;;;;4.30;2.00;;;;;;;7.73;98.66;95898.84;105603;1303;22508;-83
2022/12/24 11:11:53;;;;;;;3.50;2.00;;;;;;;7.75;98.68;95906.04;105805;1299;22536;-83
2022/12/24 11:14:31;;;;;;;5.00;2.00;;;;;;;7.74;98.58;95909.66;105723;1289;22461;-83
2022/12/24 11:17:06;;;;;;;3.20;1.90;;;;;;;7.70;98.61;95906.77;105576;1288;84671;-82
2022/12/24 11:19:47;;;;;;;2.90;2.00;;;;;;;7.68;98.74;95911.52;105785;1303;24295;-83
2022/12/24 11:22:26;;;;;;;5.90;2.40;;;;;;;7.67;98.58;95908.19;105722;1301;23242;-81
2022/12/24 11:25:06;;;;;;;5.40;1.90;;;;;;;7.68;98.60;95912.23;105780;1302;22510;-80
2022/12/24 11:27:46;;;;;;;4.80;2.20;;;;;;;7.70;98.11;95922.04;105736;1288;23121;-81
2022/12/24 11:30:29;;;;;;;3.70;2.30;;;;;;;7.71;97.95;95931.21;105738;1300;22545;-80
2022/12/24 11:33:22;;;;;;;5.40;2.10;;;;;;;7.67;97.97;95931.61;105534;1285;22558;-80
2022/12/24 11:36:04;;;;;;;5.40;2.60;;;;;;;7.62;97.91;95934.52;105782;1301;22548;-82
2022/12/24 11:38:38;;;;;;;3.00;2.00;;;;;;;7.58;98.00;95932.67;104199;1286;2117786;-82
2022/12/24 11:41:12;;;;;;;5.30;1.40;;;;;;;7.58;98.03;95940.33;105764;1297;22519;-81
2022/12/24 11:43:50;;;;;;;4.10;1.20;;;;;;;7.61;97.85;95940.05;105754;1288;22498;-81
2022/12/24 11:46:42;;;;;;;3.10;2.10;;;;;;;7.64;97.76;95948.16;105702;1285;50042;-83
2022/12/24 11:49:28;;;;;;;3.10;1.80;;;;;;;7.66;97.87;95952.52;105777;1284;23359;-82
2022/12/24 11:52:30;;;;;;;5.20;2.20;;;;;;;7.67;97.96;95957.42;105772;1303;26505;-84
2022/12/24 11:55:25;;;;;;;3.70;1.60;;;;;;;7.64;97.91;95954.13;105772;1270;22463;-81
2022/12/24 11:58:03;;;;;;;3.60;1.80;;;;;;;7.62;97.80;95957.30;105689;1288;39685;-82
2022/12/24 12:00:39;;;;;;;3.20;1.80;;;;;;;7.63;97.78;95958.52;105499;1288;22470;-83
2022/12/24 12:03:27;;;;;;;3.00;2.10;;;;;;;7.60;97.74;95964.77;105558;1287;23308;-83
2022/12/24 12:06:07;;;;;;;6.30;2.20;;;;;;;7.57;97.80;95968.35;105515;1281;59273;-81
2022/12/24 12:08:40;;;;;;;6.00;2.10;;;;;;;7.55;98.14;95976.02;105440;1303;63085;-81
2022/12/24 12:11:16;;;;;;;5.10;2.10;;;;;;;7.54;98.22;95980.88;105676;1303;22453;-80
2022/12/24 12:13:49;;;;;;;3.70;2.00;;;;;;;7.51;98.31;95989.61;105728;1295;22498;-82
2022/12/24 12:16:26;;;;;;;4.50;2.70;;;;;;;7.46;98.50;95993.33;105786;1296;22518;-80